Springdale, Pennsylvania
Current Conditions -  °F | °C
As of 10:53 AM on Monday 24 Nov 2014 (Local Time) from KAGC Reporting Station
Scattered Clouds Scattered Clouds  
Wind Chill: 67°   Ceiling: Unl
Heat Index: 67°   Visibility: 10mi
Dew Point: 43°   Wind: 24mph
Humidity: 42%   Direction: 210°SSW
Pressure: 29.43"   Gusts: 36mph
Location:  40.54°N, 79.78°W
Report Text: KAGC 241553Z 21021G31KT 10SM SCT060 19/06 A2943 RMK AO2 PK WND 22031/1551 SLP965 T01940061
Loading
Personal Weather Stations






























Interactive Weather Map New forecast layout! Learn more

10-Day Weather Forecast

Advertisements
Track Severe Weather on mobile